Time;durP1;ratioP1;P1;durP2;ratioP2;P2;SDS_P1;SDS_P2;PMS_P1;PMS_P2;Temp;Humidity;BMP_temperature;BMP_pressure;BME280_temperature;BME280_humidity;BME280_pressure;Samples;Min_cycle;Max_cycle;Signal;HPM_P1;HPM_P2
2021/03/23 00:00:38;;;;;;;8.85;7.30;;;6.70;99.60;;;;;;5108252;27;20456;-50
2021/03/23 00:03:13;;;;;;;10.65;6.45;;;6.70;99.80;;;;;;5106345;28;20993;-51
2021/03/23 00:05:39;;;;;;;9.52;6.40;;;6.60;99.90;;;;;;5099650;27;20179;-51
2021/03/23 00:08:06;;;;;;;9.45;7.10;;;7.00;99.90;;;;;;5105286;27;20681;-51
2021/03/23 00:10:33;;;;;;;9.35;6.80;;;6.80;99.80;;;;;;5110111;27;20193;-51
2021/03/23 00:12:58;;;;;;;11.45;7.47;;;6.80;99.70;;;;;;5112474;27;20192;-50
2021/03/23 00:15:24;;;;;;;9.30;6.80;;;6.10;99.60;;;;;;5107930;28;20201;-51
2021/03/23 00:17:51;;;;;;;10.30;7.50;;;6.90;99.90;;;;;;5109853;27;20585;-52
2021/03/23 00:20:21;;;;;;;10.00;6.60;;;6.90;99.60;;;;;;5107306;28;20697;-51
2021/03/23 00:22:47;;;;;;;12.25;7.15;;;6.90;99.90;;;;;;5108967;27;20656;-51
2021/03/23 00:25:12;;;;;;;11.30;7.33;;;6.20;99.70;;;;;;5108277;27;20257;-50
2021/03/23 00:27:39;;;;;;;12.33;6.90;;;6.80;99.90;;;;;;5107731;27;20860;-51
2021/03/23 00:30:08;;;;;;;10.82;6.80;;;7.00;99.90;;;;;;5109908;27;20458;-49
2021/03/23 00:32:34;;;;;;;10.65;7.05;;;6.80;99.90;;;;;;5100622;27;20175;-51
2021/03/23 00:35:00;;;;;;;8.25;6.47;;;6.90;99.80;;;;;;5106299;28;20183;-51
2021/03/23 00:37:25;;;;;;;11.87;8.10;;;7.10;99.90;;;;;;5107277;27;20239;-51
2021/03/23 00:39:51;;;;;;;12.53;7.83;;;7.00;99.70;;;;;;5096349;28;20212;-51
2021/03/23 00:42:17;;;;;;;11.30;7.93;;;6.80;99.80;;;;;;5108355;27;20527;-50
2021/03/23 00:44:45;;;;;;;12.05;7.28;;;6.80;99.50;;;;;;5107208;27;20653;-52
2021/03/23 00:47:11;;;;;;;7.97;5.80;;;6.80;99.80;;;;;;5100843;27;20183;-49
2021/03/23 00:49:37;;;;;;;14.85;7.25;;;6.80;99.60;;;;;;5103292;27;20647;-48
2021/03/23 00:52:03;;;;;;;12.50;7.77;;;6.90;99.90;;;;;;5101391;28;20197;-50
2021/03/23 00:54:28;;;;;;;10.97;7.00;;;6.90;99.90;;;;;;5106673;27;20187;-50
2021/03/23 00:56:54;;;;;;;12.40;7.93;;;7.10;99.90;;;;;;5124250;27;20997;-50
2021/03/23 00:59:19;;;;;;;10.23;7.47;;;7.00;99.90;;;;;;5108133;27;20496;-49
2021/03/23 01:01:45;;;;;;;15.17;8.60;;;6.90;99.80;;;;;;5105170;28;20244;-49
2021/03/23 01:04:11;;;;;;;12.40;7.57;;;7.00;99.90;;;;;;5124356;27;20189;-49
2021/03/23 01:06:36;;;;;;;10.77;8.33;;;7.20;99.90;;;;;;5106963;28;20187;-50
2021/03/23 01:09:03;;;;;;;12.00;8.57;;;7.00;99.90;;;;;;5127056;27;20760;-50
2021/03/23 01:11:30;;;;;;;11.98;8.07;;;7.10;99.90;;;;;;5100214;27;20274;-51
2021/03/23 01:13:56;;;;;;;12.90;8.90;;;7.10;99.90;;;;;;5103814;27;20235;-49
2021/03/23 01:16:21;;;;;;;13.60;8.23;;;6.90;99.90;;;;;;5129987;27;20202;-49
2021/03/23 01:18:47;;;;;;;12.00;8.40;;;6.90;99.90;;;;;;5100688;27;20491;-51
2021/03/23 01:21:13;;;;;;;14.40;8.57;;;6.80;99.90;;;;;;5097997;27;20173;-50
2021/03/23 01:23:38;;;;;;;10.77;7.47;;;7.00;99.90;;;;;;5103695;27;20210;-51
2021/03/23 01:26:04;;;;;;;13.83;8.40;;;6.60;99.90;;;;;;5103789;27;20180;-50
2021/03/23 01:28:29;;;;;;;12.57;8.40;;;6.70;99.90;;;;;;5099141;27;20227;-51
2021/03/23 01:30:55;;;;;;;14.00;8.20;;;7.10;99.90;;;;;;5099167;27;20331;-50
2021/03/23 01:33:21;;;;;;;9.70;7.63;;;6.80;99.90;;;;;;5097720;28;20237;-51
2021/03/23 01:35:46;;;;;;;11.07;8.30;;;6.80;99.90;;;;;;5107756;27;20278;-50
2021/03/23 01:38:13;;;;;;;13.07;8.63;;;7.00;99.90;;;;;;5098596;27;20357;-51
2021/03/23 01:40:39;;;;;;;13.35;8.40;;;6.90;99.90;;;;;;5109884;27;20211;-50
2021/03/23 01:43:29;;;;;;;11.07;8.23;;;6.40;99.90;;;;;;5108971;27;20267;-50
2021/03/23 01:45:59;;;;;;;16.17;8.43;;;7.10;99.90;;;;;;5127036;27;20179;-51
2021/03/23 01:48:33;;;;;;;13.95;9.43;;;6.80;99.90;;;;;;5096845;27;20226;-50
2021/03/23 01:51:06;;;;;;;15.10;7.95;;;6.60;99.90;;;;;;5115612;27;20186;-50
2021/03/23 01:53:41;;;;;;;11.98;8.82;;;6.80;99.90;;;;;;5102730;28;20184;-50
2021/03/23 01:56:08;;;;;;;13.43;8.32;;;6.90;99.90;;;;;;5096667;28;20201;-51
2021/03/23 01:58:39;;;;;;;12.93;9.55;;;7.00;99.90;;;;;;5102203;28;20654;-50
2021/03/23 02:01:07;;;;;;;11.88;8.68;;;6.40;99.90;;;;;;5100219;27;20693;-50
2021/03/23 02:03:33;;;;;;;16.10;10.45;;;6.80;99.90;;;;;;5105838;28;20647;-49
2021/03/23 02:06:00;;;;;;;13.20;9.75;;;6.90;99.90;;;;;;5093830;28;20182;-50
2021/03/23 02:08:27;;;;;;;18.00;11.35;;;7.30;99.90;;;;;;5096219;28;20332;-51
2021/03/23 02:10:54;;;;;;;18.60;10.63;;;6.90;99.90;;;;;;5095293;28;20276;-50
2021/03/23 02:13:21;;;;;;;13.63;10.00;;;7.10;99.90;;;;;;5107527;27;20177;-50
2021/03/23 02:15:46;;;;;;;19.42;10.80;;;6.90;99.90;;;;;;5110127;28;20678;-49
2021/03/23 02:18:14;;;;;;;16.63;10.37;;;6.90;99.90;;;;;;5106531;28;20209;-50
2021/03/23 02:21:07;;;;;;;16.20;10.82;;;7.00;99.90;;;;;;5101598;28;20209;-51
2021/03/23 02:23:48;;;;;;;16.00;11.50;;;7.10;99.90;;;;;;5099133;28;20179;-50
2021/03/23 02:26:21;;;;;;;17.52;11.55;;;6.70;99.90;;;;;;5099294;28;20176;-50
2021/03/23 02:28:52;;;;;;;15.65;10.80;;;6.60;99.90;;;;;;5108111;28;20194;-50
2021/03/23 02:31:20;;;;;;;16.50;11.43;;;6.60;99.90;;;;;;5103661;28;20176;-50
2021/03/23 02:33:45;;;;;;;16.60;10.70;;;6.70;99.90;;;;;;5102526;28;20687;-49
2021/03/23 02:36:11;;;;;;;18.80;10.93;;;6.50;99.90;;;;;;5109343;28;20216;-50
2021/03/23 02:38:37;;;;;;;18.03;12.97;;;6.80;99.90;;;;;;5116811;27;20197;-50
2021/03/23 02:41:02;;;;;;;17.37;11.20;;;6.80;99.90;;;;;;5104756;28;20246;-51
2021/03/23 02:43:28;;;;;;;17.97;12.60;;;6.90;99.90;;;;;;5107440;28;20258;-50
2021/03/23 02:45:55;;;;;;;22.90;13.20;;;6.70;99.90;;;;;;5097490;28;20183;-50
2021/03/23 02:48:21;;;;;;;19.55;11.75;;;7.00;99.90;;;;;;5105122;28;20199;-50
2021/03/23 02:50:47;;;;;;;22.70;12.90;;;6.80;99.90;;;;;;5103588;28;20179;-51
2021/03/23 02:53:13;;;;;;;17.53;11.20;;;6.80;99.90;;;;;;5101808;28;20621;-51
2021/03/23 02:55:39;;;;;;;22.25;12.63;;;7.00;99.90;;;;;;5106195;28;20195;-51
2021/03/23 02:58:05;;;;;;;18.67;12.20;;;7.00;99.90;;;;;;5110103;28;20222;-50
2021/03/23 03:00:31;;;;;;;21.50;14.07;;;7.10;99.90;;;;;;5098624;27;20207;-49
2021/03/23 03:02:57;;;;;;;21.60;14.65;;;7.10;99.90;;;;;;5107367;27;20170;-50
2021/03/23 03:05:23;;;;;;;21.13;14.20;;;7.10;99.90;;;;;;5103692;27;20171;-50
2021/03/23 03:07:48;;;;;;;21.20;13.33;;;6.80;99.90;;;;;;5110282;27;20647;-50
2021/03/23 03:10:14;;;;;;;22.77;13.13;;;6.50;99.90;;;;;;5109937;27;20179;-50
2021/03/23 03:12:40;;;;;;;21.90;13.97;;;6.70;99.90;;;;;;5106943;27;20552;-50
2021/03/23 03:15:06;;;;;;;20.50;13.63;;;6.80;99.90;;;;;;5110086;27;20911;-51
2021/03/23 03:17:32;;;;;;;22.25;13.40;;;7.20;99.90;;;;;;5102816;27;20179;-50
2021/03/23 03:19:58;;;;;;;20.17;13.27;;;7.00;99.90;;;;;;5105789;27;20216;-51
2021/03/23 03:22:23;;;;;;;22.93;15.40;;;7.00;99.90;;;;;;5106893;27;20228;-50
2021/03/23 03:24:49;;;;;;;23.53;13.40;;;6.90;99.90;;;;;;5110879;27;20233;-50
2021/03/23 03:27:14;;;;;;;21.80;13.20;;;6.80;99.90;;;;;;5113120;27;20283;-49
2021/03/23 03:29:40;;;;;;;19.47;12.97;;;6.80;99.90;;;;;;5106579;27;20772;-50
2021/03/23 03:32:07;;;;;;;18.80;13.33;;;7.00;99.90;;;;;;5103242;27;20656;-50
2021/03/23 03:34:32;;;;;;;21.67;13.65;;;7.20;99.90;;;;;;5109971;27;20186;-50
2021/03/23 03:36:58;;;;;;;21.83;13.10;;;7.00;99.90;;;;;;5106120;27;20528;-50
2021/03/23 03:39:23;;;;;;;17.40;11.80;;;7.20;99.90;;;;;;5107387;27;21523;-49
2021/03/23 03:41:49;;;;;;;22.87;14.67;;;7.10;99.90;;;;;;5106963;27;20205;-50
2021/03/23 03:44:15;;;;;;;21.40;13.70;;;7.30;99.90;;;;;;5099016;28;20179;-50
2021/03/23 03:46:40;;;;;;;17.50;12.60;;;6.70;99.90;;;;;;5108426;27;20207;-50
2021/03/23 03:49:06;;;;;;;20.90;13.97;;;7.20;99.90;;;;;;5106074;27;20201;-49
2021/03/23 03:51:31;;;;;;;19.37;12.50;;;7.00;99.90;;;;;;5100458;28;20190;-50
2021/03/23 03:53:57;;;;;;;22.50;13.40;;;6.90;99.90;;;;;;5102630;27;20184;-51
2021/03/23 03:56:23;;;;;;;19.30;13.17;;;6.90;99.90;;;;;;5100222;27;20231;-50
2021/03/23 03:58:49;;;;;;;20.30;12.60;;;7.00;99.90;;;;;;5099684;27;20697;-51
2021/03/23 04:01:14;;;;;;;22.52;15.52;;;7.00;99.90;;;;;;5093427;28;20265;-50
2021/03/23 04:03:40;;;;;;;21.70;13.40;;;6.70;99.90;;;;;;5111210;27;20277;-50
2021/03/23 04:06:05;;;;;;;21.03;15.20;;;7.00;99.90;;;;;;5102958;27;20174;-51
2021/03/23 04:08:33;;;;;;;29.40;17.20;;;6.20;99.90;;;;;;5123582;27;20199;-50
2021/03/23 04:11:02;;;;;;;26.38;14.98;;;6.70;99.90;;;;;;5097182;27;20191;-50
2021/03/23 04:13:27;;;;;;;20.05;13.30;;;6.40;99.90;;;;;;5100873;27;20190;-51
2021/03/23 04:15:54;;;;;;;21.90;13.53;;;6.60;99.90;;;;;;5106255;27;20553;-50
2021/03/23 04:18:23;;;;;;;20.15;12.75;;;6.90;99.90;;;;;;5130006;27;20209;-51
2021/03/23 04:20:50;;;;;;;21.75;14.68;;;6.90;99.90;;;;;;5123586;27;20209;-50
2021/03/23 04:23:36;;;;;;;21.52;14.70;;;6.70;99.90;;;;;;5103913;27;20192;-50
2021/03/23 04:26:03;;;;;;;19.77;13.48;;;6.90;99.90;;;;;;5105303;27;20669;-49
2021/03/23 04:28:29;;;;;;;23.13;14.90;;;7.00;99.90;;;;;;5106318;27;20328;-50
2021/03/23 04:30:55;;;;;;;22.50;13.90;;;6.80;99.90;;;;;;5112005;27;20707;-50
2021/03/23 04:33:24;;;;;;;23.33;13.98;;;6.90;99.90;;;;;;5108811;27;20187;-50
2021/03/23 04:35:57;;;;;;;21.90;14.50;;;7.00;99.90;;;;;;5095477;27;20240;-50
2021/03/23 04:38:26;;;;;;;21.52;13.55;;;6.80;99.90;;;;;;5096942;27;20600;-50
2021/03/23 04:40:52;;;;;;;20.27;12.77;;;7.00;99.90;;;;;;5104767;27;20218;-51
2021/03/23 04:43:22;;;;;;;19.08;13.30;;;6.70;99.90;;;;;;5102538;28;20221;-50
2021/03/23 04:45:47;;;;;;;20.88;13.68;;;6.80;99.90;;;;;;5107321;27;20674;-50
2021/03/23 04:48:13;;;;;;;24.50;15.43;;;6.70;99.90;;;;;;5104750;27;20205;-50
2021/03/23 04:50:39;;;;;;;22.00;15.27;;;7.00;99.90;;;;;;5103571;27;20442;-51
2021/03/23 04:53:05;;;;;;;23.30;13.33;;;6.50;99.90;;;;;;5110403;27;20454;-50
2021/03/23 04:55:30;;;;;;;28.90;14.07;;;6.60;99.90;;;;;;5108001;27;20197;-51
2021/03/23 04:57:56;;;;;;;22.57;14.77;;;6.60;99.90;;;;;;5111536;27;20674;-51
2021/03/23 05:00:22;;;;;;;26.10;14.90;;;6.40;99.90;;;;;;5107654;27;20208;-51
2021/03/23 05:02:47;;;;;;;21.50;14.37;;;6.60;99.90;;;;;;5111647;27;20194;-50
2021/03/23 05:05:13;;;;;;;20.63;14.57;;;6.30;99.90;;;;;;5111586;27;20434;-50
2021/03/23 05:07:39;;;;;;;23.57;14.53;;;6.60;99.90;;;;;;5100492;27;20209;-51
2021/03/23 05:10:07;;;;;;;21.80;13.97;;;6.80;99.90;;;;;;5105604;27;20524;-50
2021/03/23 05:12:32;;;;;;;22.85;14.18;;;6.10;99.90;;;;;;5110787;27;20189;-51
2021/03/23 05:14:58;;;;;;;20.13;14.03;;;6.80;99.90;;;;;;5121944;27;20550;-52
2021/03/23 05:17:24;;;;;;;22.40;15.60;;;6.70;99.90;;;;;;5106430;27;20866;-50
2021/03/23 05:19:49;;;;;;;22.63;12.90;;;6.70;99.90;;;;;;5107426;27;20452;-50
2021/03/23 05:22:15;;;;;;;21.23;13.97;;;7.00;99.90;;;;;;5103714;27;20185;-51
2021/03/23 05:24:41;;;;;;;21.23;13.80;;;7.10;99.90;;;;;;5107791;27;20228;-51
2021/03/23 05:27:07;;;;;;;25.20;15.30;;;6.80;99.90;;;;;;5104175;27;20548;-52
2021/03/23 05:29:33;;;;;;;24.40;14.93;;;6.70;99.90;;;;;;5100391;27;20631;-51
2021/03/23 05:31:58;;;;;;;25.10;15.90;;;6.90;99.90;;;;;;5107419;27;20211;-51
2021/03/23 05:34:24;;;;;;;21.37;13.97;;;6.80;99.90;;;;;;5118824;27;20238;-50
2021/03/23 05:36:50;;;;;;;19.90;14.10;;;7.20;99.90;;;;;;5104974;27;20531;-50
2021/03/23 05:39:15;;;;;;;22.40;15.00;;;7.20;99.90;;;;;;5109549;27;20287;-50
2021/03/23 05:41:53;;;;;;;26.80;17.43;;;6.80;99.90;;;;;;5095811;27;20242;-52
2021/03/23 05:44:40;;;;;;;26.40;15.52;;;6.80;99.90;;;;;;5103739;27;20200;-51
2021/03/23 05:47:11;;;;;;;20.00;14.25;;;6.80;99.90;;;;;;5105827;27;20676;-50
2021/03/23 05:50:05;;;;;;;22.98;14.82;;;7.10;99.90;;;;;;5102015;28;20234;-50
2021/03/23 05:52:39;;;;;;;27.67;15.73;;;7.20;99.90;;;;;;5105689;28;20187;-51
2021/03/23 05:55:18;;;;;;;25.33;15.73;;;6.90;99.90;;;;;;5123056;27;20667;-50
2021/03/23 05:57:48;;;;;;;22.50;14.55;;;6.90;99.90;;;;;;5102759;27;20574;-50
2021/03/23 06:00:25;;;;;;;20.65;13.90;;;6.50;99.90;;;;;;5104953;28;20674;-48
2021/03/23 06:03:03;;;;;;;24.83;14.25;;;7.10;99.90;;;;;;5101451;28;20193;-53
2021/03/23 06:05:56;;;;;;;21.58;15.20;;;7.00;99.90;;;;;;5103869;28;20183;-52
2021/03/23 06:08:32;;;;;;;21.30;13.55;;;6.80;99.90;;;;;;5053680;28;20211;-51
2021/03/23 06:11:43;;;;;;;23.48;15.68;;;7.60;99.90;;;;;;5100201;27;20615;-52
2021/03/23 06:14:30;;;;;;;22.40;15.32;;;7.30;99.90;;;;;;5068847;28;20651;-52
2021/03/23 06:17:07;;;;;;;24.85;13.85;;;7.30;99.90;;;;;;5125714;27;20211;-51
2021/03/23 06:19:42;;;;;;;24.40;14.73;;;7.30;99.90;;;;;;5101662;28;20218;-49
2021/03/23 06:22:41;;;;;;;24.30;14.77;;;7.20;99.90;;;;;;5101421;28;20178;-52
2021/03/23 06:25:28;;;;;;;25.92;16.17;;;7.30;99.90;;;;;;5093627;28;20180;-53
2021/03/23 06:27:58;;;;;;;20.35;14.73;;;7.30;99.90;;;;;;5101856;28;20271;-51
2021/03/23 06:30:45;;;;;;;25.17;15.90;;;7.30;99.90;;;;;;5100145;28;20194;-50
2021/03/23 06:33:14;;;;;;;24.98;15.70;;;7.20;99.90;;;;;;5107487;28;20640;-51
2021/03/23 06:35:44;;;;;;;27.45;14.60;;;7.20;99.90;;;;;;5098533;27;20207;-50
2021/03/23 06:38:21;;;;;;;27.58;15.93;;;7.50;99.90;;;;;;5110731;27;20214;-51
2021/03/23 06:41:30;;;;;;;21.98;15.50;;;7.30;99.90;;;;;;5102143;27;20213;-50
2021/03/23 06:44:12;;;;;;;25.10;17.30;;;7.30;99.90;;;;;;5022841;28;20588;-50
2021/03/23 06:46:42;;;;;;;25.60;15.38;;;7.30;99.90;;;;;;5106653;27;20742;-50
2021/03/23 06:49:14;;;;;;;25.55;17.52;;;7.20;99.90;;;;;;5109369;27;20210;-50
2021/03/23 06:51:59;;;;;;;25.05;14.95;;;7.40;99.90;;;;;;5096354;27;20217;-50
2021/03/23 06:54:36;;;;;;;24.20;14.25;;;7.50;99.90;;;;;;5108292;27;20222;-50
2021/03/23 06:57:22;;;;;;;22.95;15.85;;;7.20;99.90;;;;;;5093783;28;20178;-50
2021/03/23 06:59:59;;;;;;;30.98;16.50;;;7.00;99.90;;;;;;5098904;27;20589;-50
2021/03/23 07:02:35;;;;;;;23.73;15.80;;;7.60;99.90;;;;;;5106456;27;20181;-51
2021/03/23 07:05:30;;;;;;;22.90;14.98;;;7.70;99.90;;;;;;5107327;27;20184;-51
2021/03/23 07:07:58;;;;;;;25.00;15.30;;;7.50;99.90;;;;;;5094731;27;20224;-50
2021/03/23 07:10:45;;;;;;;27.25;16.35;;;7.30;99.90;;;;;;5105945;27;20182;-51
2021/03/23 07:13:26;;;;;;;26.85;16.35;;;7.70;99.90;;;;;;5090083;27;20202;-51
2021/03/23 07:16:19;;;;;;;24.30;15.48;;;7.60;99.90;;;;;;5103510;27;20195;-52
2021/03/23 07:18:50;;;;;;;24.17;16.42;;;7.60;99.90;;;;;;5102173;27;20200;-50
2021/03/23 07:21:22;;;;;;;27.52;18.17;;;8.00;99.90;;;;;;5099341;27;20211;-51
2021/03/23 07:24:21;;;;;;;27.83;16.33;;;7.90;99.90;;;;;;5108694;27;20644;-49
2021/03/23 07:27:02;;;;;;;27.63;16.48;;;8.30;99.90;;;;;;5097353;28;20281;-50
2021/03/23 07:29:34;;;;;;;26.38;15.82;;;8.00;99.90;;;;;;5099538;27;20671;-52
2021/03/23 07:32:11;;;;;;;25.17;16.30;;;8.10;99.90;;;;;;5102576;27;20198;-49
2021/03/23 07:34:58;;;;;;;24.38;16.08;;;8.00;99.90;;;;;;5113087;27;20605;-49
2021/03/23 07:37:36;;;;;;;24.38;16.75;;;8.20;99.90;;;;;;5101260;27;20785;-51
2021/03/23 07:40:29;;;;;;;24.73;16.27;;;8.20;99.90;;;;;;5104103;27;20251;-50
2021/03/23 07:43:04;;;;;;;23.25;15.68;;;7.80;99.90;;;;;;5085564;27;20671;-51
2021/03/23 07:45:41;;;;;;;28.92;16.00;;;7.70;99.90;;;;;;5123848;27;20201;-50
2021/03/23 07:48:19;;;;;;;27.60;16.67;;;8.00;99.90;;;;;;5103047;27;20199;-52
2021/03/23 07:50:46;;;;;;;28.77;15.82;;;8.20;99.90;;;;;;5112063;27;20190;-50
2021/03/23 07:53:38;;;;;;;25.20;15.70;;;8.50;99.90;;;;;;5121821;27;20183;-52
2021/03/23 07:56:52;;;;;;;26.65;16.30;;;8.30;99.50;;;;;;5098950;28;20183;-52
2021/03/23 07:59:44;;;;;;;26.50;15.60;;;8.50;98.90;;;;;;5008631;28;20259;-50
2021/03/23 08:02:31;;;;;;;24.48;16.13;;;8.40;98.50;;;;;;5021483;28;20589;-51
2021/03/23 08:05:09;;;;;;;27.45;17.67;;;8.10;98.00;;;;;;5082016;27;20278;-49
2021/03/23 08:08:04;;;;;;;24.25;15.77;;;8.00;98.90;;;;;;5112809;27;20202;-50
2021/03/23 08:10:49;;;;;;;27.02;16.63;;;8.40;99.40;;;;;;5096776;28;20191;-52
2021/03/23 08:13:32;;;;;;;25.60;16.83;;;8.40;99.00;;;;;;5103523;27;20200;-52
2021/03/23 08:16:10;;;;;;;28.25;15.90;;;8.20;99.00;;;;;;5101263;28;20208;-51
2021/03/23 08:18:56;;;;;;;26.15;16.25;;;8.30;99.50;;;;;;5105088;27;20338;-50
2021/03/23 08:21:36;;;;;;;20.77;14.10;;;8.60;99.30;;;;;;5105561;28;20206;-51
2021/03/23 08:24:29;;;;;;;19.10;14.35;;;8.60;98.00;;;;;;5099012;27;20179;-52
2021/03/23 08:27:01;;;;;;;24.05;15.10;;;8.90;97.90;;;;;;5094248;27;20174;-50
2021/03/23 08:29:37;;;;;;;22.52;14.38;;;8.90;97.30;;;;;;5102879;27;20207;-49
2021/03/23 08:32:21;;;;;;;21.95;14.52;;;9.00;97.70;;;;;;5105989;28;20179;-51
2021/03/23 08:35:02;;;;;;;21.73;15.43;;;9.30;97.30;;;;;;5107921;27;20178;-51
2021/03/23 08:37:40;;;;;;;23.55;14.63;;;8.90;98.00;;;;;;5100439;27;20572;-51
2021/03/23 08:40:20;;;;;;;22.60;14.73;;;9.00;97.70;;;;;;5101833;28;20691;-53
2021/03/23 08:42:48;;;;;;;24.05;14.43;;;9.30;97.40;;;;;;5102434;27;20561;-52
2021/03/23 08:45:47;;;;;;;24.00;14.93;;;9.40;97.00;;;;;;5098548;27;21759;-49
2021/03/23 08:48:38;;;;;;;24.27;14.82;;;9.70;96.20;;;;;;5096356;27;20672;-51
2021/03/23 08:51:07;;;;;;;23.90;14.60;;;9.70;96.10;;;;;;5107611;27;20251;-51
2021/03/23 08:53:35;;;;;;;16.65;12.23;;;9.20;96.20;;;;;;5101203;27;20182;-53
2021/03/23 08:56:06;;;;;;;21.60;13.40;;;8.90;96.40;;;;;;5099473;28;20213;-53
2021/03/23 08:58:47;;;;;;;24.85;13.23;;;9.00;96.80;;;;;;5109292;27;20248;-49
2021/03/23 09:01:25;;;;;;;17.55;11.68;;;8.90;96.70;;;;;;5098062;27;20258;-50
2021/03/23 09:03:53;;;;;;;17.63;11.35;;;9.30;96.00;;;;;;5096927;28;20176;-49
2021/03/23 09:06:23;;;;;;;18.98;11.82;;;9.30;95.00;;;;;;5105712;27;20171;-51
2021/03/23 09:08:50;;;;;;;17.17;11.45;;;10.20;94.10;;;;;;5122813;27;20344;-52
2021/03/23 09:11:15;;;;;;;17.98;11.30;;;10.30;93.70;;;;;;5097741;27;20273;-54
2021/03/23 09:13:41;;;;;;;16.63;11.17;;;10.30;93.20;;;;;;5120624;27;20277;-53
2021/03/23 09:16:13;;;;;;;18.13;11.83;;;10.50;92.70;;;;;;5100707;27;20191;-51
2021/03/23 09:19:02;;;;;;;15.27;11.40;;;9.50;93.30;;;;;;5100998;27;20609;-51
2021/03/23 09:21:55;;;;;;;17.30;12.57;;;10.30;93.00;;;;;;5101555;27;20203;-52
2021/03/23 09:24:40;;;;;;;16.10;11.18;;;10.30;92.40;;;;;;5103269;27;20183;-52
2021/03/23 09:27:29;;;;;;;14.98;10.40;;;10.30;92.20;;;;;;5119547;27;20183;-52
2021/03/23 09:29:55;;;;;;;21.73;12.60;;;10.80;91.30;;;;;;5108117;27;20216;-52
2021/03/23 09:32:24;;;;;;;11.60;8.60;;;10.90;91.10;;;;;;5100285;28;20183;-51
2021/03/23 09:35:07;;;;;;;12.73;8.25;;;10.40;90.10;;;;;;5108522;27;20219;-50
2021/03/23 09:37:59;;;;;;;12.27;7.85;;;10.20;90.40;;;;;;5101475;27;21546;-50
2021/03/23 09:40:37;;;;;;;9.35;6.63;;;10.50;89.40;;;;;;5115669;27;20710;-52
2021/03/23 09:43:03;;;;;;;10.73;7.43;;;10.70;87.20;;;;;;5100798;27;20478;-50
2021/03/23 09:45:33;;;;;;;13.20;9.10;;;10.30;87.20;;;;;;5091117;28;20176;-51
2021/03/23 09:48:04;;;;;;;9.15;6.43;;;10.40;89.10;;;;;;5104632;27;20204;-49
2021/03/23 09:50:36;;;;;;;11.02;8.25;;;10.40;86.40;;;;;;5126798;27;20430;-51
2021/03/23 09:53:13;;;;;;;12.25;8.40;;;10.70;86.80;;;;;;5097367;28;20180;-51
2021/03/23 09:55:40;;;;;;;7.75;5.90;;;11.00;85.70;;;;;;5102448;28;20181;-51
2021/03/23 09:58:11;;;;;;;9.35;6.45;;;11.00;82.60;;;;;;5097806;28;20205;-50
2021/03/23 10:00:37;;;;;;;11.05;7.10;;;11.30;82.80;;;;;;5104848;28;20730;-51
2021/03/23 10:03:18;;;;;;;9.13;6.53;;;11.10;82.70;;;;;;5100312;28;20189;-52
2021/03/23 10:05:58;;;;;;;9.30;6.82;;;10.70;82.90;;;;;;5103932;28;20186;-53
2021/03/23 10:08:23;;;;;;;8.60;6.55;;;10.10;84.00;;;;;;5104160;28;20205;-52
2021/03/23 10:10:49;;;;;;;10.03;5.83;;;9.50;87.00;;;;;;5122966;27;20278;-54
2021/03/23 10:13:29;;;;;;;8.80;5.00;;;9.70;88.70;;;;;;5101939;27;20270;-52
2021/03/23 10:15:57;;;;;;;9.55;5.75;;;10.10;84.80;;;;;;5096891;28;20507;-53
2021/03/23 10:18:24;;;;;;;8.88;5.75;;;10.20;84.10;;;;;;5098183;27;20210;-53
2021/03/23 10:20:59;;;;;;;9.73;6.90;;;9.90;85.90;;;;;;5097859;27;20218;-52
2021/03/23 10:23:26;;;;;;;8.85;6.40;;;9.50;88.70;;;;;;5104537;27;20675;-51
2021/03/23 10:25:52;;;;;;;10.70;6.25;;;9.60;88.80;;;;;;5098937;27;20179;-53
2021/03/23 10:28:28;;;;;;;13.38;7.25;;;9.90;87.80;;;;;;5109372;27;20290;-51
2021/03/23 10:31:03;;;;;;;7.78;5.70;;;10.00;85.70;;;;;;5107245;27;20264;-53
2021/03/23 10:33:32;;;;;;;9.57;6.43;;;10.00;86.30;;;;;;5108400;27;20455;-56
2021/03/23 10:36:01;;;;;;;6.45;4.85;;;9.80;86.50;;;;;;5106294;27;20199;-51
2021/03/23 10:38:27;;;;;;;7.57;5.72;;;10.10;83.40;;;;;;5100924;27;20210;-51
2021/03/23 10:40:54;;;;;;;7.03;5.30;;;10.00;83.20;;;;;;5131479;27;20298;-51
2021/03/23 10:43:32;;;;;;;10.32;6.25;;;10.20;84.00;;;;;;5103241;27;20440;-52
2021/03/23 10:46:03;;;;;;;8.23;6.53;;;10.20;84.10;;;;;;5118178;27;20184;-51
2021/03/23 10:48:37;;;;;;;7.30;4.82;;;10.10;83.90;;;;;;5108596;27;20263;-52
2021/03/23 10:51:24;;;;;;;6.93;6.20;;;10.00;84.00;;;;;;5107883;27;20195;-54
2021/03/23 10:54:12;;;;;;;9.73;5.65;;;9.40;84.50;;;;;;5101410;27;20522;-51
2021/03/23 10:56:46;;;;;;;7.80;5.15;;;9.90;84.90;;;;;;5104888;27;20186;-51
2021/03/23 10:59:19;;;;;;;10.85;7.25;;;10.00;83.20;;;;;;5104237;28;20226;-52
2021/03/23 11:02:19;;;;;;;11.32;6.00;;;9.80;84.60;;;;;;5108171;27;20278;-51
2021/03/23 11:05:10;;;;;;;11.95;6.85;;;10.00;83.30;;;;;;5097176;28;20175;-51
2021/03/23 11:07:58;;;;;;;8.05;6.00;;;10.40;83.80;;;;;;5111656;27;20186;-52
2021/03/23 11:10:31;;;;;;;9.18;6.78;;;10.30;84.40;;;;;;5109952;27;20278;-51
2021/03/23 11:12:58;;;;;;;6.55;5.50;;;10.40;84.90;;;;;;5107820;27;20316;-51
2021/03/23 11:15:24;;;;;;;6.40;5.40;;;10.50;82.20;;;;;;5107717;27;20214;-52
2021/03/23 11:17:51;;;;;;;11.75;5.85;;;10.50;81.10;;;;;;5100275;27;20209;-51
2021/03/23 11:20:36;;;;;;;5.93;4.38;;;10.10;82.30;;;;;;5118989;27;20688;-51
2021/03/23 11:23:05;;;;;;;6.63;5.38;;;10.50;81.00;;;;;;5101118;27;20184;-52
2021/03/23 11:25:31;;;;;;;7.65;6.22;;;10.60;80.70;;;;;;5101994;27;20176;-52
2021/03/23 11:27:57;;;;;;;6.30;4.93;;;10.80;80.70;;;;;;5103610;27;20568;-50
2021/03/23 11:30:24;;;;;;;6.65;5.40;;;10.80;79.70;;;;;;5106938;27;20521;-50
2021/03/23 11:32:50;;;;;;;6.95;6.00;;;10.80;78.70;;;;;;5101282;28;20743;-51
2021/03/23 11:35:18;;;;;;;6.60;5.20;;;10.80;79.00;;;;;;5106846;27;20211;-51
2021/03/23 11:37:44;;;;;;;6.75;5.00;;;11.10;79.40;;;;;;5104621;27;20749;-51
2021/03/23 11:40:10;;;;;;;5.87;4.93;;;10.90;78.70;;;;;;5096641;27;20271;-51
2021/03/23 11:42:42;;;;;;;8.15;5.30;;;11.20;79.30;;;;;;5124488;27;20440;-51
2021/03/23 11:45:21;;;;;;;8.02;5.70;;;10.90;78.20;;;;;;5102393;27;20209;-53
2021/03/23 11:48:11;;;;;;;12.10;5.47;;;10.80;77.90;;;;;;5101988;27;20194;-51
2021/03/23 11:50:39;;;;;;;7.70;5.68;;;10.80;78.10;;;;;;5099567;27;20192;-56
2021/03/23 11:53:05;;;;;;;7.07;5.60;;;10.60;79.00;;;;;;5094328;28;20598;-51
2021/03/23 11:55:45;;;;;;;11.85;6.43;;;10.90;79.60;;;;;;5101691;27;20175;-53
2021/03/23 11:58:17;;;;;;;11.18;7.22;;;10.90;80.10;;;;;;5103691;27;20199;-52
2021/03/23 12:00:43;;;;;;;8.55;7.00;;;11.10;80.40;;;;;;5109796;27;20232;-51
2021/03/23 12:03:11;;;;;;;10.52;8.27;;;11.20;80.90;;;;;;5125099;27;20184;-52
2021/03/23 12:05:37;;;;;;;12.27;7.70;;;10.80;80.50;;;;;;5100370;27;20184;-53
2021/03/23 12:08:28;;;;;;;10.70;8.98;;;10.50;82.20;;;;;;5100631;27;20331;-53
2021/03/23 12:11:26;;;;;;;8.95;7.22;;;10.50;83.40;;;;;;5105679;28;20210;-53
2021/03/23 12:14:13;;;;;;;10.18;7.45;;;10.70;83.30;;;;;;5107588;27;20716;-54
2021/03/23 12:17:02;;;;;;;10.82;8.20;;;10.60;85.10;;;;;;5103434;27;20218;-54
2021/03/23 12:19:36;;;;;;;8.30;6.70;;;10.60;83.40;;;;;;5102691;27;20830;-59
2021/03/23 12:22:02;;;;;;;9.70;7.32;;;11.80;90.30;;;;;;5112300;27;20192;-59
2021/03/23 12:24:28;;;;;;;12.38;8.40;;;12.00;80.20;;;;;;5096744;27;20645;-53
2021/03/23 12:26:54;;;;;;;11.25;8.45;;;12.10;80.60;;;;;;5097660;27;20205;-53
2021/03/23 12:29:20;;;;;;;12.67;8.33;;;12.00;79.40;;;;;;5108019;27;20627;-52
2021/03/23 12:31:47;;;;;;;12.48;8.13;;;11.80;79.00;;;;;;5107190;27;21015;-51
2021/03/23 12:34:13;;;;;;;8.85;6.28;;;11.90;79.00;;;;;;5098138;27;20648;-51
2021/03/23 12:36:41;;;;;;;10.73;7.70;;;11.90;78.10;;;;;;5101945;27;20189;-53
2021/03/23 12:39:08;;;;;;;16.58;12.60;;;11.90;78.20;;;;;;5098846;27;20209;-52
2021/03/23 12:41:36;;;;;;;10.52;8.20;;;11.30;78.20;;;;;;5098255;27;20178;-53
2021/03/23 12:44:03;;;;;;;10.40;7.70;;;11.20;80.70;;;;;;5092617;27;20523;-51
2021/03/23 12:46:30;;;;;;;10.70;7.10;;;11.40;83.60;;;;;;5124243;27;20184;-51
2021/03/23 12:48:56;;;;;;;14.40;8.68;;;11.30;81.60;;;;;;5106637;27;20654;-50
2021/03/23 12:51:34;;;;;;;12.48;8.10;;;11.40;80.90;;;;;;5099307;27;20196;-48
2021/03/23 12:54:00;;;;;;;9.90;7.93;;;11.60;81.70;;;;;;5102184;27;20260;-49
2021/03/23 12:56:26;;;;;;;15.57;7.87;;;11.50;79.60;;;;;;5093930;28;20302;-50
2021/03/23 12:58:52;;;;;;;9.20;7.20;;;11.20;79.30;;;;;;5104830;27;21062;-50
2021/03/23 13:01:20;;;;;;;11.03;6.77;;;11.10;79.50;;;;;;5119942;27;20357;-50
2021/03/23 13:03:46;;;;;;;15.77;8.13;;;10.80;79.20;;;;;;5095829;27;20602;-50
2021/03/23 13:06:15;;;;;;;10.60;7.50;;;10.90;81.70;;;;;;5105157;27;20176;-50